Time;durP1;ratioP1;P1;durP2;ratioP2;P2;SDS_P1;SDS_P2;PMS_P1;PMS_P2;Temp;Humidity;BMP_temperature;BMP_pressure;BME280_temperature;BME280_humidity;BME280_pressure;Samples;Min_cycle;Max_cycle;Signal;HPM_P1;HPM_P2
2021/05/25 00:00:14;;;;;;;0.88;0.70;;;;;;;;;;5013003;28;20038;-46
2021/05/25 00:02:40;;;;;;;0.60;0.50;;;;;;;;;;5012159;28;20030;-46
2021/05/25 00:05:07;;;;;;;0.40;0.40;;;;;;;;;;5012457;28;20033;-46
2021/05/25 00:07:33;;;;;;;0.85;0.52;;;;;;;;;;5013332;28;20108;-46
2021/05/25 00:09:59;;;;;;;0.40;0.40;;;;;;;;;;5013485;28;20349;-46
2021/05/25 00:12:26;;;;;;;0.60;0.60;;;;;;;;;;5012548;28;20029;-46
2021/05/25 00:14:52;;;;;;;0.40;0.40;;;;;;;;;;5013702;28;20022;-46
2021/05/25 00:17:18;;;;;;;0.22;0.22;;;;;;;;;;5013161;28;20462;-46
2021/05/25 00:19:44;;;;;;;0.88;0.60;;;;;;;;;;5010197;28;20085;-46
2021/05/25 00:22:12;;;;;;;1.88;0.55;;;;;;;;;;4994172;28;20030;-46
2021/05/25 00:24:38;;;;;;;1.30;0.50;;;;;;;;;;4993315;28;20456;-46
2021/05/25 00:27:04;;;;;;;0.63;0.40;;;;;;;;;;4993583;28;20463;-46
2021/05/25 00:29:30;;;;;;;4.72;0.55;;;;;;;;;;4993344;28;20385;-46
2021/05/25 00:31:56;;;;;;;0.35;0.30;;;;;;;;;;4992851;28;20072;-46
2021/05/25 00:34:22;;;;;;;2.25;0.55;;;;;;;;;;4996150;28;20037;-46
2021/05/25 00:36:48;;;;;;;1.15;0.50;;;;;;;;;;4993544;28;20030;-46
2021/05/25 00:39:14;;;;;;;0.43;0.43;;;;;;;;;;4993270;28;20034;-46
2021/05/25 00:41:40;;;;;;;1.00;0.63;;;;;;;;;;4992942;28;20023;-46
2021/05/25 00:44:08;;;;;;;0.95;0.70;;;;;;;;;;4997071;28;20025;-46
2021/05/25 00:46:34;;;;;;;1.10;0.55;;;;;;;;;;4993286;28;20030;-46
2021/05/25 00:49:00;;;;;;;0.63;0.45;;;;;;;;;;4993131;28;20026;-46
2021/05/25 00:51:27;;;;;;;2.65;0.60;;;;;;;;;;4992159;28;20028;-46
2021/05/25 00:53:53;;;;;;;9.07;0.50;;;;;;;;;;4993613;28;20101;-46
2021/05/25 00:56:19;;;;;;;0.50;0.50;;;;;;;;;;4993146;28;20036;-46
2021/05/25 00:58:46;;;;;;;0.60;0.60;;;;;;;;;;4993030;28;20026;-46
2021/05/25 01:01:12;;;;;;;0.50;0.50;;;;;;;;;;4991882;28;20514;-46
2021/05/25 01:03:38;;;;;;;0.40;0.40;;;;;;;;;;4993217;28;20022;-46
2021/05/25 01:06:04;;;;;;;0.38;0.38;;;;;;;;;;4993151;28;20495;-46
2021/05/25 01:08:30;;;;;;;0.30;0.30;;;;;;;;;;5006857;28;20041;-46
2021/05/25 01:11:02;;;;;;;0.98;0.40;;;;;;;;;;5011400;28;20452;-46
2021/05/25 01:13:29;;;;;;;1.55;0.60;;;;;;;;;;5012738;28;20040;-46
2021/05/25 01:15:55;;;;;;;0.50;0.50;;;;;;;;;;5003082;28;20034;-46
2021/05/25 01:18:21;;;;;;;0.40;0.30;;;;;;;;;;4993283;28;20061;-46
2021/05/25 01:20:49;;;;;;;2.28;0.40;;;;;;;;;;5002424;28;20029;-46
2021/05/25 01:23:15;;;;;;;1.83;0.50;;;;;;;;;;5011778;28;20033;-46
2021/05/25 01:25:43;;;;;;;0.70;0.47;;;;;;;;;;5010275;28;20060;-46
2021/05/25 01:28:10;;;;;;;0.40;0.40;;;;;;;;;;5012179;28;20351;-47
2021/05/25 01:30:41;;;;;;;0.80;0.60;;;;;;;;;;5011107;28;20026;-46
2021/05/25 01:33:07;;;;;;;0.50;0.50;;;;;;;;;;5003679;28;20503;-46
2021/05/25 01:35:34;;;;;;;0.63;0.52;;;;;;;;;;4992263;28;20057;-46
2021/05/25 01:38:01;;;;;;;0.60;0.60;;;;;;;;;;4993407;28;20038;-46
2021/05/25 01:40:28;;;;;;;0.40;0.40;;;;;;;;;;4996036;28;20452;-46
2021/05/25 01:42:54;;;;;;;0.40;0.40;;;;;;;;;;5011577;28;20025;-46
2021/05/25 01:45:22;;;;;;;0.45;0.40;;;;;;;;;;5011861;28;20042;-46
2021/05/25 01:47:48;;;;;;;0.38;0.38;;;;;;;;;;5002100;28;20022;-46
2021/05/25 01:50:15;;;;;;;1.67;0.65;;;;;;;;;;4996904;28;20030;-46
2021/05/25 01:52:55;;;;;;;0.80;0.68;;;;;;;;;;5011904;28;20431;-46
2021/05/25 01:55:26;;;;;;;2.00;0.65;;;;;;;;;;5011444;28;20034;-47
2021/05/25 01:57:51;;;;;;;;;;;;;;;;;;5010188;28;20511;-46
2021/05/25 02:00:18;;;;;;;0.55;0.52;;;;;;;;;;5010513;28;20007;-46
2021/05/25 02:02:44;;;;;;;0.63;0.63;;;;;;;;;;5011715;28;20036;-46
2021/05/25 02:05:10;;;;;;;3.42;0.60;;;;;;;;;;5010938;28;20041;-46
2021/05/25 02:07:36;;;;;;;0.43;0.43;;;;;;;;;;5011129;28;20048;-46
2021/05/25 02:10:02;;;;;;;0.60;0.60;;;;;;;;;;5007922;28;20037;-46
2021/05/25 02:12:28;;;;;;;0.57;0.57;;;;;;;;;;5010571;28;20057;-47
2021/05/25 02:14:54;;;;;;;0.77;0.47;;;;;;;;;;5011084;28;20058;-46
2021/05/25 02:17:20;;;;;;;2.17;0.70;;;;;;;;;;5002498;28;20022;-46
2021/05/25 02:19:46;;;;;;;1.52;0.60;;;;;;;;;;5007522;28;20465;-46
2021/05/25 02:22:12;;;;;;;1.05;0.50;;;;;;;;;;5010226;28;20034;-47
2021/05/25 02:24:38;;;;;;;0.70;0.60;;;;;;;;;;5011144;28;20034;-46
2021/05/25 02:27:04;;;;;;;0.60;0.60;;;;;;;;;;5010595;28;20479;-46
2021/05/25 02:29:30;;;;;;;1.13;0.68;;;;;;;;;;5000428;28;20030;-46
2021/05/25 02:31:56;;;;;;;0.70;0.60;;;;;;;;;;4990537;28;20354;-46
2021/05/25 02:34:22;;;;;;;1.60;0.70;;;;;;;;;;5009755;28;20045;-46
2021/05/25 02:36:48;;;;;;;0.82;0.65;;;;;;;;;;5010577;28;20022;-46
2021/05/25 02:39:14;;;;;;;2.15;1.23;;;;;;;;;;5008162;28;20105;-46
2021/05/25 02:41:40;;;;;;;6.45;1.08;;;;;;;;;;4990446;28;20399;-46
2021/05/25 02:44:06;;;;;;;1.13;0.90;;;;;;;;;;4991312;28;20068;-46
2021/05/25 02:46:32;;;;;;;0.75;0.73;;;;;;;;;;4991475;28;20042;-46
2021/05/25 02:48:58;;;;;;;0.80;0.80;;;;;;;;;;4992125;28;20029;-46
2021/05/25 02:51:24;;;;;;;0.80;0.70;;;;;;;;;;4990298;28;20034;-45
2021/05/25 02:53:50;;;;;;;2.35;0.75;;;;;;;;;;4991259;28;20026;-46
2021/05/25 02:56:16;;;;;;;1.05;0.77;;;;;;;;;;4991103;28;20458;-46
2021/05/25 02:58:42;;;;;;;1.10;0.50;;;;;;;;;;4990842;28;20026;-46
2021/05/25 03:01:08;;;;;;;1.30;0.47;;;;;;;;;;5001234;28;20072;-46
2021/05/25 03:03:34;;;;;;;2.35;0.50;;;;;;;;;;5010122;28;20030;-46
2021/05/25 03:06:00;;;;;;;0.75;0.50;;;;;;;;;;5009840;28;20061;-46
2021/05/25 03:08:27;;;;;;;4.97;0.68;;;;;;;;;;5010842;28;20021;-46
2021/05/25 03:10:53;;;;;;;1.48;0.50;;;;;;;;;;5004518;28;20030;-46
2021/05/25 03:13:19;;;;;;;1.10;0.57;;;;;;;;;;5009467;28;20029;-46
2021/05/25 03:15:46;;;;;;;7.90;0.93;;;;;;;;;;4991023;28;20044;-45
2021/05/25 03:18:12;;;;;;;0.85;0.50;;;;;;;;;;4994012;28;20359;-46
2021/05/25 03:20:39;;;;;;;2.25;1.05;;;;;;;;;;4994054;28;20022;-46
2021/05/25 03:23:06;;;;;;;0.30;0.30;;;;;;;;;;4995365;28;20423;-46
2021/05/25 03:25:32;;;;;;;4.85;0.70;;;;;;;;;;5000323;28;20073;-46
2021/05/25 03:27:58;;;;;;;2.40;0.50;;;;;;;;;;5013992;28;20042;-46
2021/05/25 03:30:25;;;;;;;0.30;0.30;;;;;;;;;;5012987;28;20030;-46
2021/05/25 03:32:52;;;;;;;0.40;0.40;;;;;;;;;;5013556;28;20162;-46
2021/05/25 03:35:18;;;;;;;0.50;0.50;;;;;;;;;;5013550;28;20529;-46
2021/05/25 03:37:45;;;;;;;0.95;0.47;;;;;;;;;;5013792;28;20156;-46
2021/05/25 03:40:12;;;;;;;0.43;0.43;;;;;;;;;;5003997;28;20030;-48
2021/05/25 03:42:39;;;;;;;0.55;0.50;;;;;;;;;;4994834;28;20471;-46
2021/05/25 03:45:05;;;;;;;0.40;0.35;;;;;;;;;;4995112;28;20092;-47
2021/05/25 03:47:31;;;;;;;0.80;0.52;;;;;;;;;;4994609;28;20030;-46
2021/05/25 03:50:07;;;;;;;0.88;0.55;;;;;;;;;;4994184;28;20074;-46
2021/05/25 03:52:33;;;;;;;0.52;0.52;;;;;;;;;;4993913;28;20038;-46
2021/05/25 03:55:00;;;;;;;0.47;0.45;;;;;;;;;;4993978;28;20015;-46
2021/05/25 03:59:52;;;;;;;0.82;0.50;;;;;;;;;;4993658;28;20113;-46
2021/05/25 04:02:18;;;;;;;0.70;0.70;;;;;;;;;;4993484;28;20023;-47
2021/05/25 04:04:44;;;;;;;1.23;0.50;;;;;;;;;;4994239;28;20023;-46
2021/05/25 04:07:10;;;;;;;1.50;0.50;;;;;;;;;;4997828;28;20045;-46
2021/05/25 04:09:37;;;;;;;0.38;0.38;;;;;;;;;;5011814;28;20398;-48
2021/05/25 04:12:03;;;;;;;0.40;0.40;;;;;;;;;;4994404;28;20030;-46
2021/05/25 04:14:29;;;;;;;2.53;1.05;;;;;;;;;;4997299;28;20500;-46
2021/05/25 04:16:56;;;;;;;5.25;0.85;;;;;;;;;;5006354;28;20383;-46
2021/05/25 04:19:22;;;;;;;0.80;0.60;;;;;;;;;;4993561;28;20464;-46
2021/05/25 04:21:48;;;;;;;0.80;0.52;;;;;;;;;;4993071;28;20088;-46
2021/05/25 04:24:14;;;;;;;0.38;0.38;;;;;;;;;;4996829;28;20026;-47
2021/05/25 04:26:40;;;;;;;0.52;0.45;;;;;;;;;;5011883;28;20470;-46
2021/05/25 04:29:06;;;;;;;0.80;0.80;;;;;;;;;;4998658;28;20034;-47
2021/05/25 04:31:32;;;;;;;0.82;0.73;;;;;;;;;;4992801;28;20073;-46
2021/05/25 04:33:58;;;;;;;0.98;0.70;;;;;;;;;;5008131;28;20058;-46
2021/05/25 04:36:25;;;;;;;2.53;0.38;;;;;;;;;;5012767;28;20026;-46
2021/05/25 04:38:51;;;;;;;2.33;0.57;;;;;;;;;;5011185;28;20044;-46
2021/05/25 04:41:17;;;;;;;0.90;0.40;;;;;;;;;;4995285;28;20399;-46
2021/05/25 04:43:43;;;;;;;2.40;0.40;;;;;;;;;;4993490;28;20035;-46
2021/05/25 04:46:09;;;;;;;4.13;0.50;;;;;;;;;;4993652;28;20030;-46
2021/05/25 04:48:35;;;;;;;0.80;0.40;;;;;;;;;;4993396;28;20332;-45
2021/05/25 04:51:01;;;;;;;0.93;0.43;;;;;;;;;;4993641;28;20030;-46
2021/05/25 04:53:27;;;;;;;0.57;0.40;;;;;;;;;;4993397;28;20030;-46
2021/05/25 04:55:53;;;;;;;5.45;0.52;;;;;;;;;;4993084;28;20566;-46
2021/05/25 04:58:19;;;;;;;1.20;0.40;;;;;;;;;;4992945;28;20022;-46
2021/05/25 05:00:45;;;;;;;0.20;0.20;;;;;;;;;;4997885;28;20084;-46
2021/05/25 05:03:11;;;;;;;0.80;0.40;;;;;;;;;;5013206;28;20030;-46
2021/05/25 05:05:37;;;;;;;0.50;0.40;;;;;;;;;;4994227;28;20255;-46
2021/05/25 05:08:06;;;;;;;0.30;0.30;;;;;;;;;;5003078;28;20034;-46
2021/05/25 05:10:32;;;;;;;0.93;0.35;;;;;;;;;;5002850;28;20426;-46
2021/05/25 05:12:58;;;;;;;1.10;0.40;;;;;;;;;;4992878;28;20428;-46
2021/05/25 05:15:24;;;;;;;0.35;0.35;;;;;;;;;;4992741;28;20045;-46
2021/05/25 05:17:50;;;;;;;1.80;0.40;;;;;;;;;;4992647;28;20031;-47
2021/05/25 05:20:17;;;;;;;1.65;0.50;;;;;;;;;;4991744;28;20083;-47
2021/05/25 05:22:43;;;;;;;0.30;0.30;;;;;;;;;;4993723;28;20026;-46
2021/05/25 05:25:10;;;;;;;0.70;0.55;;;;;;;;;;4992063;28;20038;-47
2021/05/25 05:27:36;;;;;;;0.73;0.35;;;;;;;;;;4992356;28;20096;-46
2021/05/25 05:30:02;;;;;;;1.13;0.77;;;;;;;;;;4991999;28;20045;-46
2021/05/25 05:32:28;;;;;;;0.47;0.47;;;;;;;;;;4993829;28;20026;-47
2021/05/25 05:34:54;;;;;;;0.55;0.38;;;;;;;;;;5002412;28;20030;-46
2021/05/25 05:37:20;;;;;;;1.15;0.68;;;;;;;;;;5011286;28;20026;-47
2021/05/25 05:39:46;;;;;;;3.10;0.45;;;;;;;;;;5011943;28;20443;-46
2021/05/25 05:42:12;;;;;;;0.30;0.30;;;;;;;;;;5009980;28;20030;-46
2021/05/25 05:44:38;;;;;;;2.35;0.60;;;;;;;;;;4991839;28;20050;-46
2021/05/25 05:47:04;;;;;;;0.30;0.30;;;;;;;;;;4992574;28;20076;-46
2021/05/25 05:49:31;;;;;;;0.22;0.22;;;;;;;;;;4991650;28;20029;-46
2021/05/25 05:51:57;;;;;;;0.22;0.22;;;;;;;;;;4991420;28;20420;-46
2021/05/25 05:54:23;;;;;;;37.22;1.05;;;;;;;;;;4993169;28;20022;-46
2021/05/25 05:56:49;;;;;;;0.35;0.35;;;;;;;;;;4991954;28;20499;-45
2021/05/25 05:59:15;;;;;;;0.60;0.45;;;;;;;;;;4991764;28;20475;-47
2021/05/25 06:01:41;;;;;;;7.30;0.70;;;;;;;;;;5011264;28;20038;-46
2021/05/25 06:04:07;;;;;;;0.52;0.38;;;;;;;;;;5009022;28;20062;-46
2021/05/25 06:06:34;;;;;;;0.30;0.30;;;;;;;;;;5011685;28;20037;-46
2021/05/25 06:09:00;;;;;;;7.75;0.73;;;;;;;;;;5008915;28;20018;-46
2021/05/25 06:11:26;;;;;;;0.20;0.20;;;;;;;;;;5006625;28;20030;-46
2021/05/25 06:13:52;;;;;;;3.00;0.60;;;;;;;;;;5011304;28;20025;-46
2021/05/25 06:16:18;;;;;;;0.38;0.38;;;;;;;;;;5000863;28;20063;-46
2021/05/25 06:18:44;;;;;;;3.70;0.45;;;;;;;;;;5011150;28;20049;-46
2021/05/25 06:21:10;;;;;;;0.73;0.73;;;;;;;;;;5010072;28;20436;-46
2021/05/25 06:23:36;;;;;;;0.35;0.30;;;;;;;;;;5010658;28;20154;-46
2021/05/25 06:26:02;;;;;;;1.30;0.57;;;;;;;;;;4999252;28;20133;-47
2021/05/25 06:28:29;;;;;;;2.42;0.60;;;;;;;;;;4991096;28;20462;-46
2021/05/25 06:30:56;;;;;;;5.00;0.65;;;;;;;;;;4990719;28;20521;-46
2021/05/25 06:33:22;;;;;;;2.70;0.40;;;;;;;;;;4991545;28;20081;-46
2021/05/25 06:35:49;;;;;;;3.95;0.82;;;;;;;;;;4992288;28;20030;-46
2021/05/25 06:38:15;;;;;;;0.30;0.30;;;;;;;;;;4991495;28;20217;-46
2021/05/25 06:40:42;;;;;;;0.32;0.32;;;;;;;;;;4990774;28;20293;-46
2021/05/25 06:43:08;;;;;;;0.65;0.52;;;;;;;;;;4991528;28;20022;-46
2021/05/25 06:45:34;;;;;;;0.52;0.50;;;;;;;;;;4990901;28;20475;-45
2021/05/25 06:48:00;;;;;;;1.48;0.50;;;;;;;;;;5009064;28;20100;-46
2021/05/25 06:50:26;;;;;;;0.43;0.43;;;;;;;;;;5010212;28;20129;-47
2021/05/25 06:52:52;;;;;;;1.75;0.45;;;;;;;;;;5016262;28;20490;-46
2021/05/25 06:55:18;;;;;;;0.65;0.35;;;;;;;;;;5017572;28;20018;-47
2021/05/25 06:57:44;;;;;;;0.43;0.43;;;;;;;;;;5007732;28;20030;-47
2021/05/25 07:00:11;;;;;;;0.40;0.40;;;;;;;;;;4997476;28;20014;-46
2021/05/25 07:02:40;;;;;;;0.20;0.20;;;;;;;;;;4997633;28;20129;-47
2021/05/25 07:05:08;;;;;;;0.40;0.40;;;;;;;;;;4997673;28;20030;-46
2021/05/25 07:07:34;;;;;;;2.20;0.73;;;;;;;;;;5001498;28;20169;-46
2021/05/25 07:10:00;;;;;;;1.95;0.38;;;;;;;;;;5003518;28;20448;-46
2021/05/25 07:12:26;;;;;;;2.08;1.38;;;;;;;;;;5010351;28;20128;-46
2021/05/25 07:14:52;;;;;;;2.47;0.57;;;;;;;;;;5017433;28;20077;-46
2021/05/25 07:17:18;;;;;;;3.10;0.55;;;;;;;;;;5017073;28;20192;-46
2021/05/25 07:19:44;;;;;;;0.55;0.55;;;;;;;;;;5015107;28;20454;-46
2021/05/25 07:22:10;;;;;;;0.38;0.38;;;;;;;;;;5015777;28;20065;-46
2021/05/25 07:24:36;;;;;;;0.30;0.30;;;;;;;;;;5015579;28;20371;-46
2021/05/25 07:27:02;;;;;;;1.48;0.50;;;;;;;;;;5014154;28;20378;-46
2021/05/25 07:29:28;;;;;;;0.38;0.38;;;;;;;;;;5014691;28;20117;-47
2021/05/25 07:31:55;;;;;;;1.98;0.30;;;;;;;;;;5016409;28;20048;-47
2021/05/25 07:34:21;;;;;;;2.78;0.95;;;;;;;;;;5017180;28;20089;-46
2021/05/25 07:36:47;;;;;;;0.25;0.25;;;;;;;;;;5016875;28;20473;-47
2021/05/25 07:39:15;;;;;;;5.47;2.25;;;;;;;;;;5015244;28;20038;-47
2021/05/25 07:41:41;;;;;;;0.20;0.20;;;;;;;;;;5016311;28;20029;-46
2021/05/25 07:44:07;;;;;;;17.02;0.70;;;;;;;;;;5016173;28;20411;-46
2021/05/25 07:46:33;;;;;;;1.02;0.40;;;;;;;;;;5017054;28;20033;-46
2021/05/25 07:48:59;;;;;;;0.20;0.20;;;;;;;;;;5016682;28;20022;-46
2021/05/25 07:51:25;;;;;;;0.25;0.25;;;;;;;;;;5009170;28;20037;-46
2021/05/25 07:53:51;;;;;;;1.77;0.82;;;;;;;;;;5017022;28;20076;-46
2021/05/25 07:56:17;;;;;;;0.52;0.47;;;;;;;;;;5009055;28;20030;-46
2021/05/25 07:58:43;;;;;;;0.32;0.32;;;;;;;;;;4996715;28;20374;-46
2021/05/25 08:01:09;;;;;;;4.13;0.57;;;;;;;;;;4997369;28;20367;-46
2021/05/25 08:03:35;;;;;;;0.30;0.30;;;;;;;;;;5007792;28;20447;-46
2021/05/25 08:06:02;;;;;;;2.05;0.55;;;;;;;;;;5013133;28;20049;-46
2021/05/25 08:08:30;;;;;;;0.40;0.40;;;;;;;;;;5014004;28;20480;-46
2021/05/25 08:10:56;;;;;;;1.58;0.30;;;;;;;;;;4994762;28;20041;-46
2021/05/25 08:13:22;;;;;;;0.28;0.28;;;;;;;;;;5013060;28;20030;-46
2021/05/25 08:15:50;;;;;;;0.50;0.50;;;;;;;;;;5013376;28;20137;-46
2021/05/25 08:20:49;;;;;;;0.63;0.52;;;;;;;;;;5012692;28;20064;-46
2021/05/25 08:23:15;;;;;;;1.83;0.90;;;;;;;;;;5011934;28;20088;-46
2021/05/25 08:25:43;;;;;;;1.58;0.63;;;;;;;;;;5011930;28;20037;-47
2021/05/25 08:28:10;;;;;;;0.57;0.40;;;;;;;;;;5013499;28;20026;-46
2021/05/25 08:30:39;;;;;;;4.25;0.70;;;;;;;;;;5012528;28;20022;-47
2021/05/25 08:33:06;;;;;;;1.27;0.30;;;;;;;;;;4997212;28;20018;-47
2021/05/25 08:35:35;;;;;;;0.28;0.28;;;;;;;;;;4993591;28;20372;-46
2021/05/25 08:38:01;;;;;;;0.93;0.45;;;;;;;;;;4993563;28;20116;-46
2021/05/25 08:40:29;;;;;;;0.60;0.60;;;;;;;;;;4992279;28;20477;-46
2021/05/25 08:42:55;;;;;;;0.47;0.40;;;;;;;;;;5000431;28;20048;-46
2021/05/25 08:45:22;;;;;;;0.20;0.20;;;;;;;;;;5013193;28;20038;-46
2021/05/25 08:47:52;;;;;;;0.28;0.28;;;;;;;;;;4996546;28;20041;-46
2021/05/25 08:50:20;;;;;;;0.88;0.47;;;;;;;;;;4999863;28;20355;-46
2021/05/25 08:52:46;;;;;;;0.20;0.20;;;;;;;;;;5011145;28;20096;-46
2021/05/25 08:55:12;;;;;;;1.30;0.32;;;;;;;;;;5012573;28;20359;-47
2021/05/25 08:57:38;;;;;;;0.60;0.60;;;;;;;;;;5012644;28;20402;-46
2021/05/25 09:00:06;;;;;;;0.57;0.47;;;;;;;;;;5012216;28;20403;-47
2021/05/25 09:02:32;;;;;;;0.75;0.30;;;;;;;;;;5012698;28;20533;-46
2021/05/25 09:05:01;;;;;;;2.67;0.90;;;;;;;;;;5010885;28;20437;-46
2021/05/25 09:07:41;;;;;;;3.42;0.68;;;;;;;;;;5011637;28;20447;-46
2021/05/25 09:10:09;;;;;;;0.30;0.30;;;;;;;;;;5011693;28;20355;-46
2021/05/25 09:12:39;;;;;;;0.38;0.32;;;;;;;;;;5012279;28;20038;-46
2021/05/25 09:15:06;;;;;;;0.28;0.28;;;;;;;;;;5001278;28;20030;-47
2021/05/25 09:17:32;;;;;;;0.20;0.20;;;;;;;;;;4992639;28;20073;-47
2021/05/25 09:19:59;;;;;;;0.30;0.30;;;;;;;;;;4992463;28;20042;-46
2021/05/25 09:22:36;;;;;;;0.50;0.50;;;;;;;;;;4992178;28;20034;-47
2021/05/25 09:25:08;;;;;;;1.65;1.55;;;;;;;;;;4993588;28;20573;-47
2021/05/25 09:27:37;;;;;;;0.40;0.40;;;;;;;;;;4992546;28;20388;-47
2021/05/25 09:30:15;;;;;;;1.95;0.60;;;;;;;;;;4991973;28;20038;-46
2021/05/25 09:32:52;;;;;;;0.47;0.47;;;;;;;;;;4992101;28;20045;-47
2021/05/25 09:35:21;;;;;;;0.70;0.50;;;;;;;;;;4993487;28;20037;-47
2021/05/25 09:37:48;;;;;;;2.00;0.60;;;;;;;;;;4992297;28;20034;-49
2021/05/25 09:40:17;;;;;;;5.28;1.15;;;;;;;;;;4991784;28;20041;-48
2021/05/25 09:42:47;;;;;;;3.92;0.68;;;;;;;;;;4992355;28;20407;-49
2021/05/25 09:45:16;;;;;;;1.75;0.65;;;;;;;;;;4992624;28;20054;-49
2021/05/25 09:47:53;;;;;;;2.63;0.47;;;;;;;;;;5008121;28;20030;-49
2021/05/25 09:50:20;;;;;;;0.65;0.52;;;;;;;;;;5010540;28;20060;-49
2021/05/25 09:53:04;;;;;;;1.08;0.65;;;;;;;;;;5011596;28;20022;-49
2021/05/25 09:55:31;;;;;;;0.40;0.40;;;;;;;;;;5011788;28;20018;-49
2021/05/25 09:57:57;;;;;;;0.40;0.40;;;;;;;;;;5010070;28;20029;-46
2021/05/25 10:00:32;;;;;;;0.40;0.40;;;;;;;;;;5010665;28;20495;-46
2021/05/25 10:03:07;;;;;;;0.95;0.73;;;;;;;;;;5011451;28;20034;-47
2021/05/25 10:05:33;;;;;;;1.10;0.68;;;;;;;;;;5011299;28;20061;-45
2021/05/25 10:08:00;;;;;;;0.77;0.40;;;;;;;;;;5010891;28;20064;-46
2021/05/25 10:10:27;;;;;;;0.30;0.30;;;;;;;;;;5010988;28;20069;-45
2021/05/25 10:12:55;;;;;;;0.75;0.52;;;;;;;;;;5011347;28;20034;-46
2021/05/25 10:15:23;;;;;;;0.52;0.40;;;;;;;;;;5011506;28;20402;-46
2021/05/25 10:20:31;;;;;;;0.55;0.55;;;;;;;;;;4990493;28;20408;-46
2021/05/25 10:22:57;;;;;;;0.70;0.35;;;;;;;;;;4991225;28;20529;-46
2021/05/25 10:25:25;;;;;;;4.28;0.82;;;;;;;;;;4993585;28;20030;-47
2021/05/25 10:27:51;;;;;;;2.55;0.35;;;;;;;;;;5009813;28;20061;-46
2021/05/25 10:30:24;;;;;;;0.20;0.20;;;;;;;;;;5009051;28;20030;-46
2021/05/25 10:32:50;;;;;;;1.17;0.50;;;;;;;;;;5010435;28;20034;-45
2021/05/25 10:35:20;;;;;;;1.98;0.50;;;;;;;;;;5009871;28;20637;-46
2021/05/25 10:38:15;;;;;;;1.00;0.57;;;;;;;;;;4990939;28;20101;-46
2021/05/25 10:40:42;;;;;;;1.02;0.90;;;;;;;;;;4945081;29;20040;-46
2021/05/25 10:43:26;;;;;;;0.30;0.30;;;;;;;;;;4949927;29;20122;-47
2021/05/25 10:46:12;;;;;;;0.95;0.47;;;;;;;;;;4938257;28;20141;-46
2021/05/25 10:49:03;;;;;;;1.40;0.63;;;;;;;;;;4965772;28;20139;-46
2021/05/25 10:51:53;;;;;;;2.03;0.52;;;;;;;;;;4948633;29;20039;-46
2021/05/25 10:54:24;;;;;;;0.73;0.73;;;;;;;;;;4950126;29;20034;-47
2021/05/25 10:56:51;;;;;;;3.90;0.80;;;;;;;;;;4949845;29;20075;-46
2021/05/25 10:59:19;;;;;;;2.28;0.65;;;;;;;;;;4950006;29;20503;-46
2021/05/25 11:01:45;;;;;;;0.95;0.70;;;;;;;;;;4947621;29;20472;-46
2021/05/25 11:04:12;;;;;;;8.88;0.60;;;;;;;;;;4948979;29;20044;-46
2021/05/25 11:06:39;;;;;;;1.75;0.40;;;;;;;;;;4949937;29;20095;-47
2021/05/25 11:09:24;;;;;;;3.05;0.98;;;;;;;;;;4949422;29;20027;-47
2021/05/25 11:12:08;;;;;;;0.50;0.50;;;;;;;;;;4948800;29;20038;-46
2021/05/25 11:14:34;;;;;;;0.20;0.20;;;;;;;;;;4949327;29;20056;-47
2021/05/25 11:17:20;;;;;;;1.55;0.90;;;;;;;;;;4968599;28;20042;-47
2021/05/25 11:19:57;;;;;;;3.33;0.73;;;;;;;;;;4990594;28;20088;-47
2021/05/25 11:22:34;;;;;;;0.43;0.40;;;;;;;;;;4991217;28;20121;-46
2021/05/25 11:25:03;;;;;;;0.73;0.45;;;;;;;;;;4990715;28;20029;-46
2021/05/25 11:27:46;;;;;;;0.80;0.50;;;;;;;;;;4990990;28;20117;-47
2021/05/25 11:30:28;;;;;;;3.13;0.60;;;;;;;;;;4990316;28;20038;-46
2021/05/25 11:32:55;;;;;;;6.22;0.95;;;;;;;;;;5005391;28;20477;-47
2021/05/25 11:35:24;;;;;;;0.93;0.55;;;;;;;;;;4996098;28;20468;-47
2021/05/25 11:37:53;;;;;;;0.70;0.52;;;;;;;;;;4991614;28;20440;-46
2021/05/25 11:40:21;;;;;;;0.30;0.30;;;;;;;;;;5010431;28;20463;-48
2021/05/25 11:42:47;;;;;;;0.38;0.38;;;;;;;;;;5009374;28;20034;-46
2021/05/25 11:45:14;;;;;;;0.50;0.50;;;;;;;;;;4996156;28;20081;-46
2021/05/25 11:47:40;;;;;;;2.42;0.55;;;;;;;;;;5013951;28;20022;-47
2021/05/25 11:50:06;;;;;;;2.45;0.75;;;;;;;;;;5013071;28;20405;-46
2021/05/25 11:52:34;;;;;;;0.75;0.57;;;;;;;;;;5013304;28;20034;-48
2021/05/25 11:55:07;;;;;;;4.82;0.77;;;;;;;;;;5005997;28;20111;-47
2021/05/25 11:57:35;;;;;;;1.98;0.40;;;;;;;;;;4994296;28;20077;-47
2021/05/25 12:00:03;;;;;;;0.90;0.45;;;;;;;;;;4994059;28;20440;-47
2021/05/25 12:02:31;;;;;;;0.50;0.40;;;;;;;;;;4997641;28;20029;-47
2021/05/25 12:05:07;;;;;;;3.33;0.73;;;;;;;;;;5011953;28;20451;-46
2021/05/25 12:07:33;;;;;;;2.00;0.90;;;;;;;;;;5013596;28;20442;-46
2021/05/25 12:10:01;;;;;;;1.25;0.55;;;;;;;;;;5013954;28;20022;-47
2021/05/25 12:12:29;;;;;;;0.43;0.30;;;;;;;;;;5012713;28;20036;-46
2021/05/25 12:14:57;;;;;;;1.95;0.77;;;;;;;;;;5007046;28;20125;-46
2021/05/25 12:17:24;;;;;;;1.27;0.50;;;;;;;;;;4994207;28;20026;-46
2021/05/25 12:19:54;;;;;;;2.03;0.30;;;;;;;;;;4993056;28;20477;-46
2021/05/25 12:22:37;;;;;;;1.75;1.00;;;;;;;;;;4993681;28;20038;-47
2021/05/25 12:25:13;;;;;;;0.43;0.32;;;;;;;;;;4995205;28;20351;-47
2021/05/25 12:27:39;;;;;;;0.47;0.20;;;;;;;;;;4993389;28;20045;-46
2021/05/25 12:30:06;;;;;;;1.50;0.50;;;;;;;;;;5004085;28;20036;-47
2021/05/25 12:32:32;;;;;;;0.47;0.32;;;;;;;;;;5012801;28;20057;-46
2021/05/25 12:35:00;;;;;;;1.50;0.55;;;;;;;;;;5013405;28;20018;-47
2021/05/25 12:37:26;;;;;;;1.52;0.73;;;;;;;;;;5011600;28;20022;-46
2021/05/25 12:40:01;;;;;;;0.40;0.40;;;;;;;;;;5012420;28;20351;-46
2021/05/25 12:42:33;;;;;;;0.65;0.50;;;;;;;;;;5012715;28;20439;-46
2021/05/25 12:45:26;;;;;;;0.40;0.40;;;;;;;;;;5013135;28;20032;-46
2021/05/25 12:47:59;;;;;;;1.08;0.35;;;;;;;;;;4993191;28;20055;-47
2021/05/25 12:50:29;;;;;;;1.30;0.70;;;;;;;;;;4991621;28;20033;-46
2021/05/25 12:53:05;;;;;;;1.20;0.82;;;;;;;;;;4994078;28;20077;-46
2021/05/25 12:55:32;;;;;;;4.57;1.17;;;;;;;;;;4993092;28;20057;-46
2021/05/25 12:57:58;;;;;;;0.30;0.30;;;;;;;;;;4994025;28;20367;-46
2021/05/25 13:00:33;;;;;;;0.38;0.38;;;;;;;;;;4992241;28;20878;-47
2021/05/25 13:03:00;;;;;;;4.90;1.95;;;;;;;;;;4992987;28;20046;-46
2021/05/25 13:05:26;;;;;;;0.88;0.57;;;;;;;;;;4993283;28;20027;-46
2021/05/25 13:10:32;;;;;;;0.73;0.73;;;;;;;;;;4992827;28;20034;-46
2021/05/25 13:13:08;;;;;;;0.90;0.55;;;;;;;;;;5005706;28;20454;-46
2021/05/25 13:15:38;;;;;;;1.67;0.40;;;;;;;;;;5012135;28;20248;-46
2021/05/25 13:18:05;;;;;;;0.20;0.20;;;;;;;;;;5012023;28;20061;-46
2021/05/25 13:20:31;;;;;;;0.65;0.22;;;;;;;;;;5011609;28;20080;-46
2021/05/25 13:22:57;;;;;;;1.17;0.40;;;;;;;;;;5011874;28;20426;-46
2021/05/25 13:25:34;;;;;;;0.30;0.30;;;;;;;;;;5008854;28;20265;-46
2021/05/25 13:28:00;;;;;;;1.65;0.40;;;;;;;;;;4972781;28;20428;-46
2021/05/25 13:30:34;;;;;;;1.50;0.65;;;;;;;;;;4973320;28;20030;-46
2021/05/25 13:33:00;;;;;;;1.85;0.57;;;;;;;;;;4973351;28;20121;-46
2021/05/25 13:35:26;;;;;;;5.65;0.63;;;;;;;;;;4973466;28;20122;-46
2021/05/25 13:37:52;;;;;;;1.52;0.60;;;;;;;;;;4972833;28;20122;-46
2021/05/25 13:40:18;;;;;;;0.43;0.43;;;;;;;;;;4973201;28;20433;-46
2021/05/25 13:42:44;;;;;;;2.67;0.73;;;;;;;;;;4973105;28;20058;-46
2021/05/25 13:45:10;;;;;;;0.47;0.47;;;;;;;;;;4972815;28;20027;-46
2021/05/25 13:47:36;;;;;;;3.70;0.60;;;;;;;;;;4972916;28;20056;-46
2021/05/25 13:50:22;;;;;;;0.47;0.45;;;;;;;;;;4974130;28;20392;-46
2021/05/25 13:52:48;;;;;;;2.20;0.95;;;;;;;;;;4972450;28;20038;-46
2021/05/25 13:55:14;;;;;;;1.45;0.90;;;;;;;;;;4978786;28;20038;-46
2021/05/25 13:57:42;;;;;;;1.48;0.95;;;;;;;;;;4973122;28;20113;-47
2021/05/25 14:00:13;;;;;;;0.30;0.30;;;;;;;;;;4971740;28;20494;-46
2021/05/25 14:02:39;;;;;;;0.20;0.20;;;;;;;;;;4971719;28;20102;-49
2021/05/25 14:05:06;;;;;;;0.45;0.45;;;;;;;;;;4989845;28;20046;-49
2021/05/25 14:07:34;;;;;;;2.63;0.73;;;;;;;;;;4991075;28;20519;-48
2021/05/25 14:10:00;;;;;;;0.50;0.50;;;;;;;;;;4991949;28;20022;-49
2021/05/25 14:12:26;;;;;;;1.15;0.60;;;;;;;;;;4989773;28;20504;-49
2021/05/25 14:14:54;;;;;;;2.00;0.60;;;;;;;;;;4991651;28;20015;-47
2021/05/25 14:17:21;;;;;;;3.88;0.70;;;;;;;;;;4991969;28;20371;-46
2021/05/25 14:19:47;;;;;;;3.25;0.50;;;;;;;;;;4991591;28;20348;-46
2021/05/25 14:22:15;;;;;;;0.98;0.47;;;;;;;;;;4989533;28;20034;-46
2021/05/25 14:24:41;;;;;;;2.03;0.65;;;;;;;;;;4977942;28;20030;-46
2021/05/25 14:27:07;;;;;;;0.20;0.20;;;;;;;;;;4971577;28;20315;-46
2021/05/25 14:29:33;;;;;;;0.30;0.30;;;;;;;;;;4972576;28;20255;-46
2021/05/25 14:31:59;;;;;;;0.70;0.50;;;;;;;;;;4972316;28;20403;-46
2021/05/25 14:34:25;;;;;;;3.45;0.93;;;;;;;;;;4972761;28;20022;-46
2021/05/25 14:36:51;;;;;;;1.25;0.47;;;;;;;;;;4972160;28;20033;-47
2021/05/25 14:39:17;;;;;;;0.40;0.40;;;;;;;;;;4971577;28;20030;-47
2021/05/25 14:41:43;;;;;;;0.95;0.55;;;;;;;;;;4971290;28;20027;-47
2021/05/25 14:44:09;;;;;;;0.40;0.40;;;;;;;;;;4984913;28;20018;-47
2021/05/25 14:46:35;;;;;;;5.93;0.50;;;;;;;;;;4988916;28;20117;-46
2021/05/25 14:49:01;;;;;;;0.30;0.30;;;;;;;;;;4972104;28;20109;-47
2021/05/25 14:51:27;;;;;;;5.10;0.60;;;;;;;;;;4985774;28;20388;-46
2021/05/25 14:53:57;;;;;;;3.90;0.70;;;;;;;;;;4989535;28;20031;-47
2021/05/25 14:56:26;;;;;;;;;;;;;;;;;;4991769;28;20057;-47